createdAt,value
2017-05-06T00:00:11.088Z,9.05
2017-05-06T00:01:48.772Z,9.05
2017-05-06T00:02:29.182Z,9.08
2017-05-06T00:04:26.946Z,9
2017-05-06T00:05:07.373Z,9.02
2017-05-06T00:05:47.822Z,9
2017-05-06T00:06:28.254Z,9.02
2017-05-06T00:07:08.624Z,9.13
2017-05-06T00:07:49.081Z,9.05
2017-05-06T00:08:30.107Z,9.12
2017-05-06T00:10:09.217Z,9.09
2017-05-06T00:10:49.583Z,9.16
2017-05-06T00:11:30.009Z,9.05
2017-05-06T00:12:10.445Z,9.13
2017-05-06T00:12:50.845Z,9.13
2017-05-06T00:13:31.273Z,9.05
2017-05-06T00:14:11.691Z,9.03
2017-05-06T00:14:52.077Z,9
2017-05-06T00:15:32.518Z,9.11
2017-05-06T00:16:12.930Z,9.09
2017-05-06T00:16:53.389Z,9.11
2017-05-06T00:17:33.801Z,9.02
2017-05-06T00:18:14.223Z,9.02
2017-05-06T00:18:54.651Z,9.03
2017-05-06T00:19:35.063Z,8.96
2017-05-06T00:20:15.443Z,8.96
2017-05-06T00:20:55.870Z,8.92
2017-05-06T00:21:36.271Z,8.92
2017-05-06T00:22:16.693Z,8.95
2017-05-06T00:22:57.108Z,8.9
2017-05-06T00:23:37.491Z,8.92
2017-05-06T00:24:18.749Z,8.77
2017-05-06T00:24:59.128Z,8.89
2017-05-06T00:25:39.523Z,8.84
2017-05-06T00:26:19.979Z,8.86
2017-05-06T00:27:00.369Z,8.84
2017-05-06T00:27:40.769Z,8.81
2017-05-06T00:28:21.227Z,8.81
2017-05-06T00:29:01.647Z,8.82
2017-05-06T00:29:42.037Z,8.81
2017-05-06T00:30:22.460Z,8.77
2017-05-06T00:31:02.868Z,8.72
2017-05-06T00:31:43.287Z,8.82
2017-05-06T00:32:23.711Z,8.77
2017-05-06T00:33:04.127Z,8.84
2017-05-06T00:33:44.500Z,8.77
2017-05-06T00:34:24.945Z,8.82
2017-05-06T00:35:05.368Z,8.77
2017-05-06T00:35:45.801Z,8.77
2017-05-06T00:36:26.219Z,8.75
2017-05-06T00:37:06.636Z,8.77
2017-05-06T00:37:47.033Z,8.74
2017-05-06T00:38:27.471Z,8.77
2017-05-06T00:39:07.920Z,8.79
2017-05-06T00:39:48.353Z,8.79
2017-05-06T00:40:28.738Z,8.75
2017-05-06T00:41:09.184Z,8.78
2017-05-06T00:41:49.600Z,8.72
2017-05-06T00:42:30.033Z,8.71
2017-05-06T00:43:10.432Z,8.64
2017-05-06T00:43:50.842Z,8.57
2017-05-06T00:44:31.268Z,8.56
2017-05-06T00:45:11.665Z,8.68
2017-05-06T00:45:52.094Z,8.53
2017-05-06T00:46:32.510Z,8.6
2017-05-06T00:48:59.011Z,8.52
2017-05-06T00:49:39.399Z,8.53
2017-05-06T00:50:19.857Z,8.53
2017-05-06T00:51:00.255Z,8.54
2017-05-06T00:51:43.432Z,8.5
2017-05-06T00:52:23.850Z,8.52
2017-05-06T00:53:04.299Z,8.41
2017-05-06T00:53:44.700Z,8.42
2017-05-06T00:54:25.096Z,8.46
2017-05-06T00:55:05.529Z,8.28
2017-05-06T00:55:45.949Z,8.35
2017-05-06T00:56:26.348Z,8.35
2017-05-06T00:57:06.763Z,8.36
2017-05-06T00:57:47.192Z,8.34
2017-05-06T00:58:27.633Z,8.31
2017-05-06T00:59:08.049Z,8.21
2017-05-06T00:59:48.433Z,8.2
2017-05-06T01:00:28.883Z,8.23
2017-05-06T01:01:09.277Z,8.21
2017-05-06T01:01:49.698Z,8.34
2017-05-06T01:02:30.116Z,8.28
2017-05-06T01:03:10.521Z,8.28
2017-05-06T01:03:50.924Z,8.18
2017-05-06T01:04:31.354Z,8.31
2017-05-06T01:05:11.774Z,8.31
2017-05-06T01:05:52.187Z,8.27
2017-05-06T01:06:32.599Z,8.28
2017-05-06T01:08:30.347Z,8.36
2017-05-06T01:09:10.778Z,8.31
2017-05-06T01:09:51.208Z,8.39
2017-05-06T01:10:31.618Z,8.36
2017-05-06T01:11:12.059Z,8.39
2017-05-06T01:13:25.012Z,8.45
2017-05-06T01:14:05.361Z,8.49
2017-05-06T01:14:45.805Z,8.46
2017-05-06T01:15:26.229Z,8.42
2017-05-06T01:16:06.641Z,8.49
2017-05-06T01:16:47.054Z,8.42
2017-05-06T01:17:27.454Z,8.57
2017-05-06T01:18:07.897Z,8.46
2017-05-06T01:18:48.316Z,8.54
2017-05-06T01:19:28.741Z,8.6
2017-05-06T01:20:09.161Z,8.53
2017-05-06T01:20:49.573Z,8.59
2017-05-06T01:21:30.003Z,8.59
2017-05-06T01:22:10.391Z,8.56
2017-05-06T01:22:50.826Z,8.57
2017-05-06T01:23:31.231Z,8.54
2017-05-06T01:24:11.637Z,8.53
2017-05-06T01:24:52.804Z,8.56
2017-05-06T01:25:33.258Z,8.61
2017-05-06T01:26:13.679Z,8.54
2017-05-06T01:28:11.521Z,8.64
2017-05-06T01:28:51.966Z,8.5
2017-05-06T01:29:32.412Z,8.57
2017-05-06T01:30:12.840Z,8.59
2017-05-06T01:30:53.233Z,8.54
2017-05-06T01:31:33.682Z,8.56
2017-05-06T01:32:14.080Z,8.54
2017-05-06T01:32:54.495Z,8.63
2017-05-06T01:34:47.233Z,8.6
2017-05-06T01:35:27.615Z,8.59
2017-05-06T01:36:08.056Z,8.59
2017-05-06T01:36:48.501Z,8.59
2017-05-06T01:37:28.897Z,8.56
2017-05-06T01:38:09.317Z,8.59
2017-05-06T01:38:49.730Z,8.44
2017-05-06T01:39:30.154Z,8.44
2017-05-06T01:40:10.578Z,8.39
2017-05-06T01:40:50.977Z,8.28
2017-05-06T01:41:31.420Z,8.32
2017-05-06T01:42:11.838Z,8.18
2017-05-06T01:42:52.253Z,8.23
2017-05-06T01:43:32.692Z,8.13
2017-05-06T01:44:13.101Z,8.13
2017-05-06T01:44:53.505Z,8.08
2017-05-06T01:45:33.945Z,8.09
2017-05-06T01:46:14.337Z,8.06
2017-05-06T01:46:54.754Z,7.99
2017-05-06T01:47:35.127Z,7.99
2017-05-06T01:48:15.573Z,7.96
2017-05-06T01:48:55.973Z,7.9
2017-05-06T01:49:36.380Z,7.84
2017-05-06T01:50:16.790Z,7.87
2017-05-06T01:50:57.218Z,7.81
2017-05-06T01:51:38.246Z,7.81
2017-05-06T01:52:18.671Z,7.69
2017-05-06T01:52:59.088Z,7.78
2017-05-06T01:53:39.502Z,7.66
2017-05-06T01:54:19.925Z,7.78
2017-05-06T01:55:00.366Z,7.62
2017-05-06T01:55:40.768Z,7.67
2017-05-06T01:56:21.179Z,7.7
2017-05-06T01:57:01.602Z,7.61
2017-05-06T01:57:42.008Z,7.78
2017-05-06T01:58:22.425Z,7.74
2017-05-06T02:00:15.247Z,7.74
2017-05-06T02:00:55.643Z,7.74
2017-05-06T02:01:36.057Z,7.8
2017-05-06T02:02:16.463Z,7.84
2017-05-06T02:02:56.900Z,7.84
2017-05-06T02:03:37.304Z,7.85
2017-05-06T02:04:17.741Z,7.95
2017-05-06T02:04:58.146Z,7.96
2017-05-06T02:05:38.571Z,7.96
2017-05-06T02:06:19.015Z,7.93
2017-05-06T02:06:59.445Z,8.02
2017-05-06T02:07:39.862Z,8.06
2017-05-06T02:08:20.285Z,8.06
2017-05-06T02:09:00.669Z,8.13
2017-05-06T02:09:41.057Z,8.13
2017-05-06T02:10:21.468Z,8.13
2017-05-06T02:11:01.912Z,8.11
2017-05-06T02:11:42.306Z,8.11
2017-05-06T02:12:22.723Z,8.05
2017-05-06T02:13:03.130Z,8.17
2017-05-06T02:13:43.542Z,8.21
2017-05-06T02:14:23.932Z,8.14
2017-05-06T02:15:04.357Z,8.13
2017-05-06T02:15:44.777Z,8.18
2017-05-06T02:16:25.209Z,8.17
2017-05-06T02:17:05.640Z,8.21
2017-05-06T02:17:46.024Z,8.11
2017-05-06T02:18:26.521Z,8.14
2017-05-06T02:19:06.912Z,8.17
2017-05-06T02:19:47.863Z,8.18
2017-05-06T02:20:28.246Z,8.17
2017-05-06T02:21:08.663Z,8.21
2017-05-06T02:21:49.092Z,8.18
2017-05-06T02:22:29.496Z,8.23
2017-05-06T02:23:09.913Z,8.26
2017-05-06T02:23:50.345Z,8.23
2017-05-06T02:24:30.770Z,8.24
2017-05-06T02:26:27.718Z,8.2
2017-05-06T02:27:08.618Z,8.21
2017-05-06T02:27:49.070Z,8.17
2017-05-06T02:28:29.463Z,8.14
2017-05-06T02:29:09.862Z,8.26
2017-05-06T02:29:50.273Z,8.28
2017-05-06T02:32:09.092Z,8.23
2017-05-06T02:32:49.522Z,8.23
2017-05-06T02:33:29.968Z,8.24
2017-05-06T02:34:10.436Z,8.31
2017-05-06T02:34:50.880Z,8.2
2017-05-06T02:35:31.271Z,8.28
2017-05-06T02:36:11.684Z,8.34
2017-05-06T02:36:52.103Z,8.31
2017-05-06T02:37:32.560Z,8.2
2017-05-06T02:38:12.958Z,8.32
2017-05-06T02:38:53.375Z,8.28
2017-05-06T02:39:33.815Z,8.28
2017-05-06T02:40:15.184Z,8.36
2017-05-06T02:40:55.618Z,8.46
2017-05-06T02:41:36.034Z,8.44
2017-05-06T02:42:16.470Z,8.49
2017-05-06T02:42:56.891Z,8.44
2017-05-06T02:43:37.326Z,8.52
2017-05-06T02:44:17.766Z,8.44
2017-05-06T02:44:58.230Z,8.53
2017-05-06T02:45:38.602Z,8.46
2017-05-06T02:46:19.016Z,8.5
2017-05-06T02:46:59.439Z,8.5
2017-05-06T02:47:39.855Z,8.52
2017-05-06T02:48:20.264Z,8.42
2017-05-06T02:49:00.665Z,8.42
2017-05-06T02:49:41.087Z,8.45
2017-05-06T02:50:21.527Z,8.46
2017-05-06T02:51:01.939Z,8.45
2017-05-06T02:51:42.342Z,8.39
2017-05-06T02:52:22.781Z,8.42
2017-05-06T02:53:03.203Z,8.45
2017-05-06T02:53:43.587Z,8.28
2017-05-06T02:54:24.017Z,8.32
2017-05-06T02:55:04.437Z,8.31
2017-05-06T02:55:44.846Z,8.27
2017-05-06T02:56:25.275Z,8.32
2017-05-06T02:57:05.683Z,8.26
2017-05-06T02:57:46.081Z,8.32
2017-05-06T02:58:26.479Z,8.27
2017-05-06T02:59:06.922Z,8.24
2017-05-06T02:59:48.029Z,8.31
2017-05-06T03:00:28.457Z,8.26
2017-05-06T03:01:08.829Z,8.31
2017-05-06T03:01:49.268Z,8.27
2017-05-06T03:02:29.679Z,8.27
2017-05-06T03:03:10.117Z,8.23
2017-05-06T03:03:50.508Z,8.23
2017-05-06T03:04:30.969Z,8.34
2017-05-06T03:05:11.381Z,8.36
2017-05-06T03:05:51.779Z,8.34
2017-05-06T03:06:32.210Z,8.28
2017-05-06T03:07:12.649Z,8.31
2017-05-06T03:07:53.260Z,8.31
2017-05-06T03:08:33.700Z,8.32
2017-05-06T03:09:14.140Z,8.28
2017-05-06T03:09:54.519Z,8.23
2017-05-06T03:10:34.954Z,8.27
2017-05-06T03:11:15.372Z,8.34
2017-05-06T03:11:55.835Z,8.34
2017-05-06T03:12:36.188Z,8.34
2017-05-06T03:13:16.597Z,8.28
2017-05-06T03:13:57.042Z,8.31
2017-05-06T03:14:37.481Z,8.23
2017-05-06T03:15:17.903Z,8.26
2017-05-06T03:15:58.329Z,8.17
2017-05-06T03:16:38.775Z,8.17
2017-05-06T03:17:19.163Z,8.24
2017-05-06T03:17:59.591Z,8.23
2017-05-06T03:18:40.015Z,8.23
2017-05-06T03:19:20.435Z,8.21
2017-05-06T03:20:00.853Z,8.24
2017-05-06T03:20:41.275Z,8.17
2017-05-06T03:21:21.695Z,8.2
2017-05-06T03:22:02.096Z,8.2
2017-05-06T03:22:42.529Z,8.17
2017-05-06T03:23:22.944Z,8.28
2017-05-06T03:24:03.339Z,8.21
2017-05-06T03:24:43.817Z,8.17
2017-05-06T03:25:24.257Z,8.26
2017-05-06T03:27:36.966Z,8.18
2017-05-06T03:28:17.403Z,8.2
2017-05-06T03:28:57.855Z,8.26
2017-05-06T03:29:38.295Z,8.24
2017-05-06T03:30:18.716Z,8.2
2017-05-06T03:30:59.111Z,8.18
2017-05-06T03:31:39.520Z,8.17
2017-05-06T03:33:32.418Z,8.24
2017-05-06T03:34:12.844Z,8.18
2017-05-06T03:34:53.278Z,8.26
2017-05-06T03:35:33.712Z,8.2
2017-05-06T03:36:14.132Z,8.24
2017-05-06T03:36:54.567Z,8.23
2017-05-06T03:37:34.973Z,8.2
2017-05-06T03:38:15.389Z,8.21
2017-05-06T03:38:55.778Z,8.16
2017-05-06T03:39:36.205Z,8.23
2017-05-06T03:40:16.608Z,8.2
2017-05-06T03:40:57.009Z,8.21
2017-05-06T03:41:38.307Z,8.16
2017-05-06T03:42:18.735Z,8.13
2017-05-06T03:42:59.144Z,8.18
2017-05-06T03:43:39.561Z,8.16
2017-05-06T03:44:19.964Z,8.18
2017-05-06T03:46:07.546Z,8.13
2017-05-06T03:46:47.949Z,8.17
2017-05-06T03:47:28.387Z,8.18
2017-05-06T03:48:08.795Z,8.09
2017-05-06T03:48:49.235Z,8.18
2017-05-06T03:49:29.674Z,8.09
2017-05-06T03:50:10.091Z,8.11
2017-05-06T03:50:50.488Z,8.09
2017-05-06T03:51:30.925Z,8.14
2017-05-06T03:52:11.301Z,8.2
2017-05-06T03:52:51.685Z,8.16
2017-05-06T03:53:32.104Z,8.16
2017-05-06T03:54:12.537Z,8.11
2017-05-06T03:54:53.139Z,8.11
2017-05-06T03:55:33.654Z,8.16
2017-05-06T03:56:14.099Z,8.13
2017-05-06T03:56:54.509Z,8.18
2017-05-06T03:57:35.232Z,8.13
2017-05-06T03:58:15.340Z,8.2
2017-05-06T03:58:55.766Z,8.14
2017-05-06T03:59:37.263Z,8.14
2017-05-06T04:00:17.656Z,8.18
2017-05-06T04:00:58.279Z,8.11
2017-05-06T04:01:38.708Z,8.08
2017-05-06T04:02:19.104Z,8.16
2017-05-06T04:04:31.925Z,8.18
2017-05-06T04:05:12.337Z,8.17
2017-05-06T04:05:52.779Z,8.05
2017-05-06T04:06:33.220Z,8.08
2017-05-06T04:07:13.646Z,8.03
2017-05-06T04:07:54.094Z,8.08
2017-05-06T04:08:34.536Z,8.11
2017-05-06T04:09:14.943Z,8.09
2017-05-06T04:09:55.326Z,8.08
2017-05-06T04:10:35.762Z,8.08
2017-05-06T04:11:16.160Z,8.06
2017-05-06T04:11:56.579Z,8.14
2017-05-06T04:12:37.040Z,8.06
2017-05-06T04:14:29.695Z,8.05
2017-05-06T04:15:10.120Z,8.08
2017-05-06T04:15:50.570Z,8.06
2017-05-06T04:16:30.994Z,8.11
2017-05-06T04:17:11.413Z,8.06
2017-05-06T04:17:51.810Z,8.09
2017-05-06T04:18:32.213Z,8.09
2017-05-06T04:19:12.670Z,8.11
2017-05-06T04:19:53.072Z,8.03
2017-05-06T04:20:33.457Z,8.11
2017-05-06T04:21:13.881Z,8.08
2017-05-06T04:21:54.311Z,8.08
2017-05-06T04:22:34.707Z,8.08
2017-05-06T04:23:15.110Z,8.11
2017-05-06T04:23:55.532Z,8.14
2017-05-06T04:24:35.964Z,8.11
2017-05-06T04:25:16.367Z,8.09
2017-05-06T04:25:56.795Z,8.09
2017-05-06T04:26:37.183Z,8.08
2017-05-06T04:27:17.630Z,8.09
2017-05-06T04:27:57.997Z,8.08
2017-05-06T04:28:38.452Z,8.08
2017-05-06T04:29:18.897Z,8.08
2017-05-06T04:29:59.284Z,8.05
2017-05-06T04:30:39.718Z,8.09
2017-05-06T04:31:20.136Z,8.09
2017-05-06T04:32:00.556Z,8.01
2017-05-06T04:32:40.980Z,8.05
2017-05-06T04:33:21.368Z,8.03
2017-05-06T04:34:01.792Z,8.06
2017-05-06T04:34:42.230Z,8.02
2017-05-06T04:35:22.642Z,8.11
2017-05-06T04:36:03.039Z,8.08
2017-05-06T04:36:43.511Z,8.02
2017-05-06T04:37:23.940Z,8.08
2017-05-06T04:38:04.361Z,8.06
2017-05-06T04:38:44.745Z,8.09
2017-05-06T04:39:25.178Z,8.09
2017-05-06T04:40:05.567Z,8.09
2017-05-06T04:40:46.012Z,8.06
2017-05-06T04:41:26.434Z,8.09
2017-05-06T04:42:06.850Z,8.13
2017-05-06T04:42:47.261Z,8.13
2017-05-06T04:43:27.657Z,8.18
2017-05-06T04:44:08.104Z,8.11
2017-05-06T04:44:48.491Z,8.13
2017-05-06T04:45:28.888Z,8.18
2017-05-06T04:46:09.323Z,8.13
2017-05-06T04:46:49.744Z,8.18
2017-05-06T04:47:30.146Z,8.14
2017-05-06T04:48:10.580Z,8.18
2017-05-06T04:48:50.978Z,8.21
2017-05-06T04:49:31.371Z,8.23
2017-05-06T04:50:11.810Z,8.27
2017-05-06T04:50:52.222Z,8.2
2017-05-06T04:51:32.646Z,8.26
2017-05-06T04:52:13.038Z,8.2
2017-05-06T04:52:53.496Z,8.27
2017-05-06T04:53:33.940Z,8.23
2017-05-06T04:54:14.369Z,8.31
2017-05-06T04:54:54.780Z,8.35
2017-05-06T04:55:35.163Z,8.31
2017-05-06T04:56:15.591Z,8.32
2017-05-06T04:56:56.022Z,8.36
2017-05-06T04:57:36.439Z,8.32
2017-05-06T04:58:16.920Z,8.32
2017-05-06T04:58:57.315Z,8.28
2017-05-06T04:59:37.749Z,8.39
2017-05-06T05:00:18.146Z,8.42
2017-05-06T05:00:58.601Z,8.39
2017-05-06T05:01:38.993Z,8.41
2017-05-06T05:02:19.442Z,8.41
2017-05-06T05:02:59.886Z,8.44
2017-05-06T05:03:40.259Z,8.49
2017-05-06T05:04:20.680Z,8.56
2017-05-06T05:05:01.082Z,8.53
2017-05-06T05:05:41.526Z,8.52
2017-05-06T05:06:21.931Z,8.54
2017-05-06T05:07:02.351Z,8.56
2017-05-06T05:07:42.753Z,8.57
2017-05-06T05:08:23.159Z,8.68
2017-05-06T05:09:03.581Z,8.69
2017-05-06T05:09:43.971Z,8.71
2017-05-06T05:10:24.442Z,8.72
2017-05-06T05:11:05.562Z,8.78
2017-05-06T05:11:45.847Z,8.81
2017-05-06T05:12:26.458Z,8.72
2017-05-06T05:13:06.865Z,8.78
2017-05-06T05:13:47.387Z,8.87
2017-05-06T05:14:27.671Z,8.89
2017-05-06T05:15:08.087Z,8.95
2017-05-06T05:15:48.509Z,9.11
2017-05-06T05:16:28.910Z,9.08
2017-05-06T05:17:09.343Z,9.15
2017-05-06T05:17:49.780Z,9.24
2017-05-06T05:18:30.199Z,9.26
2017-05-06T05:19:10.606Z,9.33
2017-05-06T05:19:51.019Z,9.34
2017-05-06T05:20:31.484Z,9.47
2017-05-06T05:21:11.888Z,9.51
2017-05-06T05:21:52.307Z,9.56
2017-05-06T05:22:32.710Z,9.56
2017-05-06T05:23:13.135Z,9.59
2017-05-06T05:23:53.545Z,9.72
2017-05-06T05:24:33.981Z,9.64
2017-05-06T05:25:14.365Z,9.66
2017-05-06T05:25:54.777Z,9.8
2017-05-06T05:26:35.225Z,9.81
2017-05-06T05:27:15.603Z,9.85
2017-05-06T05:27:56.057Z,9.92
2017-05-06T05:28:36.430Z,9.97
2017-05-06T05:29:16.874Z,9.92
2017-05-06T05:29:57.500Z,9.92
2017-05-06T05:30:37.929Z,10
2017-05-06T05:31:18.334Z,10.03
2017-05-06T05:31:58.998Z,10.03
2017-05-06T05:32:39.421Z,10.1
2017-05-06T05:33:23.054Z,10.09
2017-05-06T05:34:02.091Z,10.2
2017-05-06T05:34:42.529Z,10.15
2017-05-06T05:35:23.196Z,10.09
2017-05-06T05:36:04.765Z,10.18
2017-05-06T05:36:46.247Z,10.15
2017-05-06T05:37:26.161Z,10.24
2017-05-06T05:38:06.579Z,10.34
2017-05-06T05:38:47.001Z,10.25
2017-05-06T05:39:27.427Z,10.28
2017-05-06T05:40:07.875Z,10.3
2017-05-06T05:40:48.311Z,10.34
2017-05-06T05:41:28.781Z,10.3
2017-05-06T05:42:09.210Z,10.34
2017-05-06T05:42:49.648Z,10.36
2017-05-06T05:45:02.536Z,10.31
2017-05-06T05:45:42.964Z,10.34
2017-05-06T05:46:23.405Z,10.48
2017-05-06T05:47:03.830Z,10.51
2017-05-06T05:47:44.268Z,10.48
2017-05-06T05:48:24.703Z,10.49
2017-05-06T05:49:05.135Z,10.38
2017-05-06T05:49:45.564Z,10.43
2017-05-06T05:50:25.952Z,10.46
2017-05-06T05:51:06.366Z,10.46
2017-05-06T05:51:46.777Z,10.49
2017-05-06T05:52:27.202Z,10.45
2017-05-06T05:53:07.619Z,10.55
2017-05-06T05:53:47.991Z,10.61
2017-05-06T05:54:28.427Z,10.71
2017-05-06T05:55:08.849Z,10.68
2017-05-06T05:55:49.255Z,10.71
2017-05-06T05:56:29.697Z,10.72
2017-05-06T05:57:10.077Z,10.75
2017-05-06T05:57:50.495Z,10.87
2017-05-06T05:58:30.911Z,10.84
2017-05-06T05:59:11.351Z,11.01
2017-05-06T05:59:51.725Z,11.02
2017-05-06T06:01:44.308Z,11.07
2017-05-06T06:02:24.745Z,11.1
2017-05-06T06:03:05.187Z,11.19
2017-05-06T06:03:45.635Z,11.37
2017-05-06T06:04:26.053Z,11.4
2017-05-06T06:05:06.491Z,11.38
2017-05-06T06:05:46.914Z,11.41
2017-05-06T06:06:27.309Z,11.51
2017-05-06T06:07:07.755Z,11.62
2017-05-06T06:07:48.153Z,11.73
2017-05-06T06:08:28.573Z,11.71
2017-05-06T06:09:09.040Z,11.86
2017-05-06T06:09:49.458Z,11.96
2017-05-06T06:10:29.877Z,12.08
2017-05-06T06:11:10.268Z,12.1
2017-05-06T06:11:50.699Z,12.21
2017-05-06T06:12:33.104Z,12.21
2017-05-06T06:13:13.530Z,12.17
2017-05-06T06:13:53.932Z,12.1
2017-05-06T06:14:34.341Z,12.11
2017-05-06T06:15:14.778Z,12.08
2017-05-06T06:15:55.189Z,12.12
2017-05-06T06:16:35.585Z,12.07
2017-05-06T06:17:16.003Z,11.89
2017-05-06T06:17:56.412Z,11.93
2017-05-06T06:18:36.833Z,11.86
2017-05-06T06:19:17.260Z,12
2017-05-06T06:19:57.678Z,12.05
2017-05-06T06:20:38.089Z,11.99
2017-05-06T06:21:18.515Z,12.03
2017-05-06T06:21:58.954Z,12.11
2017-05-06T06:22:39.344Z,12.15
2017-05-06T06:23:19.760Z,12.2
2017-05-06T06:24:00.203Z,12.18
2017-05-06T06:24:40.612Z,12.37
2017-05-06T06:25:21.005Z,12.39
2017-05-06T06:26:01.449Z,12.58
2017-05-06T06:26:41.874Z,12.58
2017-05-06T06:27:22.283Z,12.8
2017-05-06T06:28:02.683Z,12.78
2017-05-06T06:28:43.092Z,12.8
2017-05-06T06:29:23.497Z,12.95
2017-05-06T06:30:03.942Z,13.02
2017-05-06T06:32:16.752Z,13.39
2017-05-06T06:32:57.177Z,13.46
2017-05-06T06:33:37.610Z,13.58
2017-05-06T06:34:18.042Z,13.79
2017-05-06T06:34:58.457Z,13.73
2017-05-06T06:35:38.881Z,13.79
2017-05-06T06:36:19.383Z,13.87
2017-05-06T06:36:59.784Z,13.94
2017-05-06T06:37:40.231Z,14.01
2017-05-06T06:38:20.650Z,13.98
2017-05-06T06:39:01.104Z,14.01
2017-05-06T06:39:41.536Z,14.08
2017-05-06T06:40:21.953Z,14.03
2017-05-06T06:42:19.806Z,14.11
2017-05-06T06:43:00.223Z,14.18
2017-05-06T06:43:40.665Z,14.16
2017-05-06T06:44:21.109Z,14.15
2017-05-06T06:45:01.500Z,14.19
2017-05-06T06:45:41.937Z,14.26
2017-05-06T06:46:22.346Z,14.23
2017-05-06T06:47:02.779Z,14.34
2017-05-06T06:47:43.198Z,14.28
2017-05-06T06:48:23.696Z,14.34
2017-05-06T06:49:04.040Z,14.33
2017-05-06T06:49:44.418Z,14.3
2017-05-06T06:50:24.857Z,14.4
2017-05-06T06:51:05.293Z,14.38
2017-05-06T06:51:46.091Z,14.41
2017-05-06T06:52:26.509Z,14.41
2017-05-06T06:54:14.085Z,14.38
2017-05-06T06:54:54.461Z,14.3
2017-05-06T06:55:35.008Z,14.31
2017-05-06T06:56:16.049Z,14.33
2017-05-06T06:56:56.426Z,14.3
2017-05-06T06:57:37.011Z,14.37
2017-05-06T06:58:17.401Z,14.33
2017-05-06T07:00:30.361Z,14.36
2017-05-06T07:01:10.815Z,14.38
2017-05-06T07:01:51.264Z,14.49
2017-05-06T07:02:31.653Z,14.45
2017-05-06T07:03:12.196Z,14.56
2017-05-06T07:03:52.639Z,14.61
2017-05-06T07:04:33.040Z,14.7
2017-05-06T07:05:13.501Z,14.73
2017-05-06T07:05:53.912Z,14.78
2017-05-06T07:06:34.387Z,14.87
2017-05-06T07:07:14.789Z,15.02
2017-05-06T07:07:55.350Z,15.04
2017-05-06T07:08:35.795Z,15.12
2017-05-06T07:09:16.908Z,15.18
2017-05-06T07:09:56.625Z,15.29
2017-05-06T07:10:37.052Z,15.29
2017-05-06T07:11:18.091Z,15.44
2017-05-06T07:11:58.498Z,15.45
2017-05-06T07:12:38.998Z,15.59
2017-05-06T07:13:19.369Z,15.66
2017-05-06T07:13:59.781Z,15.75
2017-05-06T07:14:40.268Z,15.84
2017-05-06T07:15:20.648Z,15.92
2017-05-06T07:16:01.066Z,15.92
2017-05-06T07:16:41.782Z,15.96
2017-05-06T07:17:22.154Z,15.98
2017-05-06T07:18:02.613Z,15.9
2017-05-06T07:18:43.589Z,15.98
2017-05-06T07:19:24.042Z,15.91
2017-05-06T07:20:04.468Z,16.02
2017-05-06T07:20:44.892Z,16.12
2017-05-06T07:21:25.364Z,16.25
2017-05-06T07:22:06.621Z,16.32
2017-05-06T07:22:47.048Z,16.49
2017-05-06T07:23:27.448Z,16.55
2017-05-06T07:25:15.097Z,16.77
2017-05-06T07:25:55.487Z,16.98
2017-05-06T07:26:35.915Z,17.24
2017-05-06T07:27:16.399Z,17.56
2017-05-06T07:27:56.835Z,17.94
2017-05-06T07:28:37.255Z,18.42
2017-05-06T07:29:17.775Z,18.98
2017-05-06T07:29:58.175Z,19.72
2017-05-06T07:30:38.623Z,20.49
2017-05-06T07:31:19.067Z,21.05
2017-05-06T07:31:59.415Z,21.7
2017-05-06T07:32:39.884Z,22.26
2017-05-06T07:33:20.369Z,22.68
2017-05-06T07:34:00.891Z,23.25
2017-05-06T07:34:41.245Z,23.59
2017-05-06T07:35:21.794Z,23.89
2017-05-06T07:36:02.234Z,24.21
2017-05-06T07:36:42.573Z,24.47
2017-05-06T07:37:23.102Z,24.75
2017-05-06T07:38:03.561Z,24.86
2017-05-06T07:38:44.015Z,25.01
2017-05-06T07:39:24.387Z,25.16
2017-05-06T07:40:04.797Z,25.31
2017-05-06T07:40:45.311Z,25.51
2017-05-06T07:41:25.758Z,25.62
2017-05-06T07:42:06.177Z,25.85
2017-05-06T07:42:46.583Z,25.96
2017-05-06T07:44:44.903Z,26.44
2017-05-06T07:45:25.349Z,26.49
2017-05-06T07:46:05.865Z,26.51
2017-05-06T07:46:46.218Z,26.52
2017-05-06T07:47:26.731Z,26.55
2017-05-06T07:48:07.121Z,26.53
2017-05-06T07:48:47.523Z,26.67
2017-05-06T07:49:28.008Z,26.55
2017-05-06T07:50:08.452Z,26.66
2017-05-06T07:50:48.855Z,26.96
2017-05-06T07:51:29.308Z,27.23
2017-05-06T07:52:09.689Z,27.37
2017-05-06T07:52:50.149Z,27.85
2017-05-06T07:53:30.541Z,28.08
2017-05-06T07:54:11.016Z,28.65
2017-05-06T07:54:51.368Z,28.97
2017-05-06T07:55:31.798Z,29.35
2017-05-06T07:56:12.348Z,29.73
2017-05-06T07:56:52.727Z,30.02
2017-05-06T07:57:33.038Z,30.36
2017-05-06T07:58:13.532Z,30.59
2017-05-06T07:58:53.940Z,30.52
2017-05-06T07:59:34.333Z,30.27
2017-05-06T08:01:47.259Z,29.65
2017-05-06T08:02:27.703Z,29.55
2017-05-06T08:03:08.223Z,29.61
2017-05-06T08:03:48.634Z,29.79
2017-05-06T08:04:29.015Z,30.05
2017-05-06T08:05:09.638Z,30.35
2017-05-06T08:05:49.930Z,30.69
2017-05-06T08:07:47.916Z,31.1
2017-05-06T08:08:28.408Z,31.1
2017-05-06T08:09:08.856Z,30.99
2017-05-06T08:09:49.308Z,31.13
2017-05-06T08:10:29.884Z,31.26
2017-05-06T08:11:10.631Z,31.36
2017-05-06T08:11:50.787Z,31.14
2017-05-06T08:12:31.788Z,31.04
2017-05-06T08:13:13.548Z,30.95
2017-05-06T08:13:53.997Z,30.98
2017-05-06T08:14:35.819Z,31.04
2017-05-06T08:15:16.279Z,31.08
2017-05-06T08:15:56.825Z,31.22
2017-05-06T08:16:37.187Z,31.11
2017-05-06T08:17:17.578Z,30.89
2017-05-06T08:17:57.992Z,30.61
2017-05-06T08:18:38.437Z,30.35
2017-05-06T08:19:18.851Z,30.08
2017-05-06T08:21:17.373Z,29.06
2017-05-06T08:21:58.056Z,28.6
2017-05-06T08:22:39.147Z,28.23
2017-05-06T08:23:19.567Z,28.03
2017-05-06T08:23:59.976Z,27.67
2017-05-06T08:24:40.421Z,27.5
2017-05-06T08:25:20.836Z,27.3
2017-05-06T08:26:01.273Z,27.3
2017-05-06T08:26:41.694Z,27.38
2017-05-06T08:27:22.190Z,27.33
2017-05-06T08:28:02.633Z,27.41
2017-05-06T08:28:43.019Z,27.37
2017-05-06T08:29:23.450Z,27.25
2017-05-06T08:30:03.896Z,27.34
2017-05-06T08:30:45.502Z,27.37
2017-05-06T08:31:25.898Z,27.3
2017-05-06T08:32:06.337Z,27.22
2017-05-06T08:32:46.753Z,27.16
2017-05-06T08:33:27.210Z,27.19
2017-05-06T08:34:09.134Z,27.05
2017-05-06T08:34:49.826Z,26.82
2017-05-06T08:35:30.309Z,26.68
2017-05-06T08:36:10.826Z,26.46
2017-05-06T08:36:51.229Z,26.29
2017-05-06T08:37:31.743Z,26.07
2017-05-06T08:38:12.148Z,26.01
2017-05-06T08:38:52.597Z,25.95
2017-05-06T08:39:33.559Z,26.06
2017-05-06T08:40:14.293Z,26.44
2017-05-06T08:40:54.764Z,27.04
2017-05-06T08:41:35.212Z,27.55
2017-05-06T08:42:15.642Z,28.1
2017-05-06T08:42:57.248Z,28.67
2017-05-06T08:43:37.193Z,29.02
2017-05-06T08:44:17.629Z,29.46
2017-05-06T08:44:58.406Z,29.77
2017-05-06T08:45:39.652Z,29.98
2017-05-06T08:46:20.041Z,30.36
2017-05-06T08:47:00.485Z,30.67
2017-05-06T08:47:40.901Z,31.15
2017-05-06T08:48:21.303Z,31.45
2017-05-06T08:49:01.732Z,31.57
2017-05-06T08:49:42.249Z,31.48
2017-05-06T08:50:22.716Z,31.42
2017-05-06T08:51:03.185Z,31.32
2017-05-06T08:51:43.807Z,31.25
2017-05-06T08:52:24.553Z,31.04
2017-05-06T08:53:05.002Z,30.92
2017-05-06T08:53:45.398Z,30.76
2017-05-06T08:54:25.830Z,31
2017-05-06T08:55:06.271Z,31.17
2017-05-06T08:55:46.719Z,31.55
2017-05-06T08:56:27.761Z,31.87
2017-05-06T08:57:08.178Z,32.11
2017-05-06T08:57:48.748Z,32.51
2017-05-06T08:58:29.937Z,32.68
2017-05-06T08:59:10.371Z,32.86
2017-05-06T08:59:51.592Z,33.22
2017-05-06T09:00:32.008Z,33.65
2017-05-06T09:01:12.423Z,33.95
2017-05-06T09:01:53.748Z,34.22
2017-05-06T09:02:35.833Z,34.37
2017-05-06T09:03:16.236Z,34.63
2017-05-06T09:03:56.704Z,35.01
2017-05-06T09:04:37.272Z,35.19
2017-05-06T09:05:22.985Z,35.39
2017-05-06T09:06:03.514Z,35.38
2017-05-06T09:06:43.985Z,35.3
2017-05-06T09:07:24.453Z,35.35
2017-05-06T09:08:06.867Z,35.2
2017-05-06T09:08:47.287Z,34.91
2017-05-06T09:09:27.709Z,34.91
2017-05-06T09:10:08.152Z,34.96
2017-05-06T09:10:48.590Z,35.16
2017-05-06T09:11:29.022Z,35.32
2017-05-06T09:12:10.136Z,35.37
2017-05-06T09:12:50.657Z,35.47
2017-05-06T09:13:32.445Z,35.56
2017-05-06T09:14:12.985Z,35.52
2017-05-06T09:14:53.418Z,35.41
2017-05-06T09:15:33.920Z,35.45
2017-05-06T09:16:14.334Z,35.35
2017-05-06T09:16:54.786Z,35.39
2017-05-06T09:17:35.233Z,35.61
2017-05-06T09:18:15.667Z,35.81
2017-05-06T09:18:56.111Z,36.14
2017-05-06T09:19:37.092Z,36.13
2017-05-06T09:20:17.816Z,36.28
2017-05-06T09:20:58.517Z,36.43
2017-05-06T09:21:39.032Z,36.43
2017-05-06T09:22:19.483Z,36.2
2017-05-06T09:22:59.928Z,35.87
2017-05-06T09:23:40.351Z,35.64
2017-05-06T09:25:38.451Z,35.05
2017-05-06T09:26:18.897Z,34.65
2017-05-06T09:27:01.050Z,34.43
2017-05-06T09:27:41.466Z,34.29
2017-05-06T09:28:21.918Z,34.18
2017-05-06T09:29:02.344Z,34.21
2017-05-06T09:29:42.836Z,34.09